createdAt,value
2018-10-21T00:00:58.399Z,12.72
2018-10-21T00:03:26.493Z,12.73
2018-10-21T00:05:54.546Z,12.84
2018-10-21T00:08:22.697Z,12.87
2018-10-21T00:10:50.729Z,12.95
2018-10-21T00:13:18.772Z,12.89
2018-10-21T00:15:46.892Z,12.94
2018-10-21T00:18:14.976Z,12.89
2018-10-21T00:20:43.043Z,13.03
2018-10-21T00:23:11.116Z,13.10
2018-10-21T00:25:39.151Z,13.18
2018-10-21T00:28:07.437Z,13.19
2018-10-21T00:30:35.512Z,13.15
2018-10-21T00:33:04.004Z,13.26
2018-10-21T00:35:31.922Z,13.33
2018-10-21T00:38:00.012Z,13.39
2018-10-21T00:40:28.124Z,13.46
2018-10-21T00:42:56.160Z,13.49
2018-10-21T00:45:24.268Z,13.51
2018-10-21T00:47:52.279Z,13.55
2018-10-21T00:50:20.305Z,13.59
2018-10-21T00:52:48.346Z,13.56
2018-10-21T00:55:16.363Z,13.52
2018-10-21T00:57:44.369Z,13.40
2018-10-21T01:00:17.357Z,13.32
2018-10-21T01:02:45.360Z,13.33
2018-10-21T01:05:13.380Z,13.31
2018-10-21T01:07:41.420Z,13.34
2018-10-21T01:10:10.810Z,13.39
2018-10-21T01:12:38.850Z,13.35
2018-10-21T01:15:08.444Z,13.37
2018-10-21T01:17:36.525Z,13.36
2018-10-21T01:20:06.207Z,13.37
2018-10-21T01:22:34.230Z,13.41
2018-10-21T01:25:02.245Z,13.42
2018-10-21T01:27:30.393Z,13.36
2018-10-21T01:29:58.444Z,13.38
2018-10-21T01:32:26.476Z,13.42
2018-10-21T01:34:54.489Z,13.37
2018-10-21T01:37:22.571Z,13.37
2018-10-21T01:40:57.268Z,13.36
2018-10-21T01:43:29.339Z,13.29
2018-10-21T01:45:57.618Z,13.27
2018-10-21T01:48:26.871Z,13.21
2018-10-21T01:50:54.939Z,13.20
2018-10-21T01:53:23.348Z,13.08
2018-10-21T01:55:51.443Z,13.17
2018-10-21T01:58:19.540Z,13.18
2018-10-21T02:00:47.668Z,13.05
2018-10-21T02:03:16.087Z,12.97
2018-10-21T02:05:44.772Z,12.92
2018-10-21T02:08:12.942Z,12.89
2018-10-21T02:10:41.001Z,12.78
2018-10-21T02:13:09.048Z,12.90
2018-10-21T02:15:37.160Z,12.95
2018-10-21T02:18:05.585Z,12.96
2018-10-21T02:20:33.667Z,12.95
2018-10-21T02:23:01.671Z,12.74
2018-10-21T02:25:29.746Z,12.93
2018-10-21T02:27:58.768Z,12.92
2018-10-21T02:30:28.000Z,12.86
2018-10-21T02:32:56.619Z,12.89
2018-10-21T02:35:24.751Z,12.76
2018-10-21T02:37:53.454Z,12.71
2018-10-21T02:41:33.821Z,12.82
2018-10-21T02:44:02.162Z,12.76
2018-10-21T02:46:30.548Z,12.61
2018-10-21T02:48:59.449Z,12.65
2018-10-21T02:51:27.512Z,12.69
2018-10-21T02:53:55.580Z,12.64
2018-10-21T02:56:23.678Z,12.69
2018-10-21T02:58:51.672Z,12.77
2018-10-21T03:01:19.687Z,12.65
2018-10-21T03:03:47.709Z,12.59
2018-10-21T03:06:15.860Z,12.65
2018-10-21T03:08:43.881Z,12.51
2018-10-21T03:11:11.889Z,12.37
2018-10-21T03:13:40.140Z,12.23
2018-10-21T03:16:08.116Z,12.30
2018-10-21T03:18:36.324Z,12.32
2018-10-21T03:21:05.066Z,12.42
2018-10-21T03:23:33.470Z,12.54
2018-10-21T03:26:01.825Z,12.56
2018-10-21T03:28:30.116Z,12.60
2018-10-21T03:30:58.193Z,12.53
2018-10-21T03:33:26.423Z,12.52
2018-10-21T03:35:54.336Z,12.48
2018-10-21T03:38:22.329Z,12.60
2018-10-21T03:40:50.326Z,12.60
2018-10-21T03:43:18.365Z,12.66
2018-10-21T03:45:46.401Z,12.67
2018-10-21T03:48:14.413Z,12.69
2018-10-21T03:50:42.481Z,12.73
2018-10-21T03:53:10.507Z,12.78
2018-10-21T03:55:40.116Z,12.80
2018-10-21T03:58:08.130Z,12.85
2018-10-21T04:00:36.516Z,12.87
2018-10-21T04:03:04.913Z,12.98
2018-10-21T04:05:33.265Z,12.89
2018-10-21T04:08:01.438Z,12.88
2018-10-21T04:10:29.392Z,12.89
2018-10-21T04:12:57.701Z,12.80
2018-10-21T04:15:25.760Z,12.72
2018-10-21T04:17:54.123Z,12.56
2018-10-21T04:20:22.305Z,12.33
2018-10-21T04:22:52.531Z,12.10
2018-10-21T04:25:21.426Z,12.15
2018-10-21T04:27:50.021Z,12.03
2018-10-21T04:30:21.986Z,12.18
2018-10-21T04:32:56.526Z,12.21
2018-10-21T04:35:24.970Z,12.29
2018-10-21T04:40:08.676Z,12.33
2018-10-21T04:42:36.789Z,12.15
2018-10-21T04:45:05.160Z,12.18
2018-10-21T04:47:33.159Z,12.23
2018-10-21T04:50:01.177Z,12.34
2018-10-21T04:52:30.245Z,12.46
2018-10-21T04:55:03.737Z,12.48
2018-10-21T04:57:31.963Z,12.52
2018-10-21T04:59:59.976Z,12.59
2018-10-21T05:02:28.681Z,12.59
2018-10-21T05:04:56.681Z,12.59
2018-10-21T05:07:24.936Z,12.63
2018-10-21T05:09:52.950Z,12.71
2018-10-21T05:12:21.177Z,12.84
2018-10-21T05:14:49.199Z,12.95
2018-10-21T05:17:17.214Z,12.99
2018-10-21T05:19:45.252Z,13.03
2018-10-21T05:22:13.353Z,13.08
2018-10-21T05:24:41.292Z,13.08
2018-10-21T05:27:09.569Z,13.08
2018-10-21T05:29:37.653Z,13.12
2018-10-21T05:32:05.782Z,13.14
2018-10-21T05:34:33.785Z,13.18
2018-10-21T05:37:01.841Z,13.18
2018-10-21T05:39:29.984Z,13.16
2018-10-21T05:41:58.069Z,13.12
2018-10-21T05:44:26.137Z,13.15
2018-10-21T05:46:54.239Z,13.19
2018-10-21T05:49:22.266Z,13.12
2018-10-21T05:51:51.216Z,13.15
2018-10-21T05:54:19.897Z,13.01
2018-10-21T05:56:49.356Z,12.93
2018-10-21T05:59:17.940Z,12.72
2018-10-21T06:01:46.777Z,12.69
2018-10-21T06:04:15.812Z,12.74
2018-10-21T06:06:43.862Z,12.71
2018-10-21T06:09:13.028Z,12.69
2018-10-21T06:11:41.063Z,12.71
2018-10-21T06:14:09.150Z,12.74
2018-10-21T06:16:42.778Z,12.62
2018-10-21T06:19:13.336Z,12.55
2018-10-21T06:21:42.582Z,12.54
2018-10-21T06:24:10.609Z,12.49
2018-10-21T06:26:38.649Z,12.63
2018-10-21T06:29:06.676Z,12.66
2018-10-21T06:31:34.752Z,12.60
2018-10-21T06:34:02.765Z,12.63
2018-10-21T06:36:30.937Z,12.67
2018-10-21T06:38:59.037Z,12.60
2018-10-21T06:41:27.055Z,12.74
2018-10-21T06:43:55.148Z,12.72
2018-10-21T06:46:23.188Z,12.76
2018-10-21T06:48:51.253Z,12.69
2018-10-21T06:51:19.302Z,12.76
2018-10-21T06:53:47.361Z,12.71
2018-10-21T06:56:15.527Z,12.77
2018-10-21T06:58:43.513Z,12.83
2018-10-21T07:01:11.659Z,12.77
2018-10-21T07:03:39.773Z,12.86
2018-10-21T07:06:09.957Z,12.86
2018-10-21T07:08:38.053Z,12.90
2018-10-21T07:11:06.506Z,12.89
2018-10-21T07:13:34.885Z,12.73
2018-10-21T07:16:02.949Z,12.74
2018-10-21T07:18:31.026Z,12.78
2018-10-21T07:20:59.104Z,12.73
2018-10-21T07:23:27.201Z,12.90
2018-10-21T07:25:55.224Z,13.10
2018-10-21T07:28:23.279Z,13.38
2018-10-21T07:30:51.421Z,13.69
2018-10-21T07:33:19.550Z,14.01
2018-10-21T07:35:47.646Z,14.16
2018-10-21T07:38:15.768Z,14.29
2018-10-21T07:40:44.005Z,14.32
2018-10-21T07:43:12.055Z,14.28
2018-10-21T07:45:40.129Z,14.38
2018-10-21T07:48:08.209Z,14.41
2018-10-21T07:50:36.248Z,14.49
2018-10-21T07:53:04.292Z,14.42
2018-10-21T07:55:32.416Z,14.35
2018-10-21T07:58:00.448Z,14.51
2018-10-21T08:00:28.452Z,14.48
2018-10-21T08:02:56.528Z,14.53
2018-10-21T08:05:36.003Z,14.36
2018-10-21T08:08:10.886Z,14.54
2018-10-21T08:10:38.934Z,14.50
2018-10-21T08:13:07.558Z,14.68
2018-10-21T08:15:35.594Z,14.80
2018-10-21T08:18:03.608Z,14.82
2018-10-21T08:20:31.793Z,14.85
2018-10-21T08:22:59.830Z,14.92
2018-10-21T08:25:27.812Z,14.92
2018-10-21T08:27:55.986Z,14.97
2018-10-21T08:30:24.078Z,15.00
2018-10-21T08:32:52.392Z,15.03
2018-10-21T08:35:21.068Z,15.08
2018-10-21T08:37:49.184Z,15.10
2018-10-21T08:40:17.199Z,15.19
2018-10-21T08:42:45.380Z,15.23
2018-10-21T08:45:13.468Z,15.34
2018-10-21T08:47:41.764Z,15.22
2018-10-21T08:50:10.233Z,15.11
2018-10-21T08:52:38.260Z,15.19
2018-10-21T08:55:06.917Z,15.24
2018-10-21T08:57:34.848Z,15.28
2018-10-21T09:00:02.877Z,15.31
2018-10-21T09:02:30.951Z,15.19
2018-10-21T09:04:58.972Z,15.08
2018-10-21T09:07:26.996Z,15.23
2018-10-21T09:09:55.065Z,15.09
2018-10-21T09:12:24.168Z,15.17
2018-10-21T09:14:52.230Z,15.23
2018-10-21T09:17:20.240Z,15.43
2018-10-21T09:19:48.262Z,15.36
2018-10-21T09:22:16.373Z,15.52
2018-10-21T09:24:44.316Z,15.65
2018-10-21T09:27:12.308Z,15.64
2018-10-21T09:29:40.325Z,15.63
2018-10-21T09:32:08.380Z,15.58
2018-10-21T09:34:36.402Z,15.74
2018-10-21T09:37:05.109Z,15.72
2018-10-21T09:39:33.076Z,15.63
2018-10-21T09:42:01.223Z,15.70
2018-10-21T09:44:29.185Z,15.86
2018-10-21T09:46:57.279Z,15.87
2018-10-21T09:49:25.285Z,16.14
2018-10-21T09:51:53.384Z,15.82
2018-10-21T09:54:21.369Z,16.00
2018-10-21T09:56:49.397Z,16.16
2018-10-21T09:59:17.466Z,16.35
2018-10-21T10:01:50.965Z,16.59
2018-10-21T10:04:19.056Z,16.49
2018-10-21T10:06:47.086Z,16.57
2018-10-21T10:09:15.094Z,16.62
2018-10-21T10:11:43.727Z,16.72
2018-10-21T10:14:11.751Z,16.73
2018-10-21T10:16:40.101Z,16.99
2018-10-21T10:19:08.207Z,17.23
2018-10-21T10:21:36.536Z,17.49
2018-10-21T10:24:04.546Z,17.44
2018-10-21T10:26:32.585Z,17.39
2018-10-21T10:29:00.749Z,17.53
2018-10-21T10:31:28.965Z,17.73
2018-10-21T10:33:57.117Z,17.94
2018-10-21T10:36:25.152Z,17.92
2018-10-21T10:38:53.181Z,17.95
2018-10-21T10:41:21.361Z,18.04
2018-10-21T10:43:49.352Z,17.99
2018-10-21T10:46:17.498Z,18.19
2018-10-21T10:48:45.493Z,18.16
2018-10-21T10:51:13.512Z,18.22
2018-10-21T10:53:41.593Z,18.38
2018-10-21T10:56:09.594Z,18.41
2018-10-21T10:58:37.653Z,18.41
2018-10-21T11:01:05.877Z,18.69
2018-10-21T11:03:33.904Z,18.87
2018-10-21T11:06:02.053Z,18.78
2018-10-21T11:08:30.125Z,18.68
2018-10-21T11:10:58.156Z,18.67
2018-10-21T11:13:26.238Z,18.72
2018-10-21T11:15:54.303Z,18.62
2018-10-21T11:18:22.393Z,18.70
2018-10-21T11:20:50.433Z,18.62
2018-10-21T11:23:18.486Z,18.71
2018-10-21T11:25:46.635Z,18.54
2018-10-21T11:28:14.731Z,18.46
2018-10-21T11:30:42.689Z,18.07
2018-10-21T11:33:10.746Z,18.03
2018-10-21T11:35:38.864Z,18.22
2018-10-21T11:38:06.992Z,18.47
2018-10-21T11:40:34.977Z,18.57
2018-10-21T11:43:03.074Z,18.64
2018-10-21T11:45:31.109Z,18.91
2018-10-21T11:47:59.118Z,19.13
2018-10-21T11:50:27.197Z,18.95
2018-10-21T11:52:55.208Z,19.02
2018-10-21T11:55:23.209Z,18.90
2018-10-21T11:57:51.249Z,18.99
2018-10-21T12:00:19.272Z,19.32
2018-10-21T12:02:47.303Z,19.16
2018-10-21T12:05:15.309Z,19.15
2018-10-21T12:07:43.328Z,19.45
2018-10-21T12:10:11.414Z,19.42
2018-10-21T12:12:39.581Z,19.45
2018-10-21T12:15:07.716Z,19.74
2018-10-21T12:17:35.751Z,19.88
2018-10-21T12:22:28.572Z,19.75
2018-10-21T12:24:56.559Z,19.93
2018-10-21T12:27:24.576Z,20.00
2018-10-21T12:29:52.609Z,19.63
2018-10-21T12:32:20.730Z,19.55
2018-10-21T12:34:48.738Z,19.53
2018-10-21T12:37:16.770Z,19.48
2018-10-21T12:39:44.792Z,19.39
2018-10-21T12:42:12.805Z,19.74
2018-10-21T12:44:40.851Z,19.83
2018-10-21T12:47:08.859Z,19.92
2018-10-21T12:49:36.897Z,19.96
2018-10-21T12:52:05.239Z,20.09
2018-10-21T12:54:33.352Z,19.85
2018-10-21T12:57:01.372Z,20.00
2018-10-21T12:59:29.444Z,20.00
2018-10-21T13:01:57.561Z,19.64
2018-10-21T13:04:25.817Z,19.27
2018-10-21T13:06:53.842Z,19.01
2018-10-21T13:09:21.910Z,19.02
2018-10-21T13:11:49.956Z,18.98
2018-10-21T13:14:18.017Z,18.74
2018-10-21T13:16:46.033Z,18.69
2018-10-21T13:19:14.138Z,18.67
2018-10-21T13:21:42.072Z,18.73
2018-10-21T13:24:10.143Z,18.93
2018-10-21T13:26:38.129Z,19.08
2018-10-21T13:29:06.121Z,18.97
2018-10-21T13:31:34.217Z,18.74
2018-10-21T13:34:02.211Z,18.54
2018-10-21T13:36:30.286Z,18.48
2018-10-21T13:38:58.410Z,18.62
2018-10-21T13:41:26.618Z,18.62
2018-10-21T13:43:54.808Z,18.64
2018-10-21T13:46:22.947Z,18.70
2018-10-21T13:48:50.954Z,18.79
2018-10-21T13:51:19.034Z,18.84
2018-10-21T13:53:47.040Z,19.03
2018-10-21T13:56:15.096Z,19.03
2018-10-21T13:58:43.072Z,19.15
2018-10-21T14:01:11.096Z,19.11
2018-10-21T14:03:39.101Z,19.30
2018-10-21T14:06:07.168Z,19.10
2018-10-21T14:08:35.149Z,19.09
2018-10-21T14:11:03.144Z,19.18
2018-10-21T14:13:31.193Z,18.91
2018-10-21T14:15:59.268Z,18.80
2018-10-21T14:18:27.297Z,18.74
2018-10-21T14:20:55.390Z,18.82
2018-10-21T14:23:23.492Z,18.94
2018-10-21T14:25:51.484Z,18.91
2018-10-21T14:28:19.593Z,18.79
2018-10-21T14:30:47.947Z,18.51
2018-10-21T14:33:15.726Z,18.32
2018-10-21T14:35:43.712Z,18.36
2018-10-21T14:38:11.854Z,18.35
2018-10-21T14:40:39.800Z,18.32
2018-10-21T14:43:07.906Z,18.48
2018-10-21T14:45:35.962Z,18.67
2018-10-21T14:48:03.985Z,18.62
2018-10-21T14:50:32.085Z,18.63
2018-10-21T14:53:00.304Z,18.70
2018-10-21T14:55:28.335Z,18.65
2018-10-21T14:57:56.399Z,18.52
2018-10-21T15:00:24.505Z,18.37
2018-10-21T15:02:52.453Z,18.10
2018-10-21T15:05:20.508Z,17.85
2018-10-21T15:07:48.608Z,17.67
2018-10-21T15:10:16.639Z,17.77
2018-10-21T15:12:45.249Z,17.81
2018-10-21T15:15:13.317Z,17.91
2018-10-21T15:17:41.429Z,17.66
2018-10-21T15:20:11.448Z,17.61
2018-10-21T15:22:39.396Z,17.64
2018-10-21T15:25:08.664Z,17.66
2018-10-21T15:27:36.685Z,17.72
2018-10-21T15:30:06.042Z,17.78
2018-10-21T15:32:34.233Z,17.79
2018-10-21T15:35:02.475Z,17.85
2018-10-21T15:37:30.521Z,17.79
2018-10-21T15:39:59.081Z,17.74
2018-10-21T15:42:27.164Z,17.84
2018-10-21T15:44:55.397Z,17.77
2018-10-21T15:47:23.405Z,17.72
2018-10-21T15:49:51.629Z,17.64
2018-10-21T15:52:20.025Z,17.61
2018-10-21T15:54:48.170Z,17.46
2018-10-21T15:57:16.404Z,17.39
2018-10-21T15:59:44.732Z,17.41
2018-10-21T16:02:12.836Z,17.41
2018-10-21T16:04:40.869Z,17.36
2018-10-21T16:07:08.949Z,17.38
2018-10-21T16:09:36.949Z,17.29
2018-10-21T16:12:05.100Z,17.27
2018-10-21T16:14:33.167Z,17.27
2018-10-21T16:17:01.205Z,17.07
2018-10-21T16:19:29.217Z,16.99
2018-10-21T16:21:57.287Z,17.01
2018-10-21T16:24:25.253Z,17.12
2018-10-21T16:26:53.253Z,17.14
2018-10-21T16:29:21.350Z,17.08
2018-10-21T16:34:23.795Z,17.01
2018-10-21T16:36:51.805Z,17.00
2018-10-21T16:39:19.896Z,16.98
2018-10-21T16:41:47.888Z,17.06
2018-10-21T16:44:15.977Z,17.09
2018-10-21T16:46:44.093Z,17.07
2018-10-21T16:49:12.177Z,17.08
2018-10-21T16:51:40.245Z,17.00
2018-10-21T16:54:08.322Z,16.82
2018-10-21T16:56:36.552Z,16.90
2018-10-21T16:59:04.628Z,16.77
2018-10-21T17:01:32.844Z,16.68
2018-10-21T17:04:01.122Z,16.66
2018-10-21T17:06:29.290Z,16.66
2018-10-21T17:08:57.451Z,16.66
2018-10-21T17:11:25.497Z,16.66
2018-10-21T17:13:53.569Z,16.61
2018-10-21T17:16:21.651Z,16.51
2018-10-21T17:18:49.729Z,16.61
2018-10-21T17:21:17.869Z,16.63
2018-10-21T17:23:45.933Z,16.54
2018-10-21T17:26:14.048Z,16.56
2018-10-21T17:28:42.029Z,16.64
2018-10-21T17:31:10.164Z,16.77
2018-10-21T17:33:38.232Z,16.70
2018-10-21T17:36:06.361Z,16.72
2018-10-21T17:38:34.466Z,16.72
2018-10-21T17:41:02.577Z,16.68
2018-10-21T17:43:30.768Z,16.73
2018-10-21T17:45:58.920Z,16.73
2018-10-21T17:48:26.942Z,16.78
2018-10-21T17:50:54.981Z,16.82
2018-10-21T17:53:23.005Z,16.83
2018-10-21T17:55:51.136Z,16.85
2018-10-21T17:58:19.237Z,16.58
2018-10-21T18:00:47.461Z,16.57
2018-10-21T18:03:15.557Z,16.65
2018-10-21T18:05:43.587Z,16.53
2018-10-21T18:08:11.634Z,16.56
2018-10-21T18:10:39.728Z,16.54
2018-10-21T18:13:07.925Z,16.43
2018-10-21T18:15:35.905Z,16.39
2018-10-21T18:18:04.020Z,16.42
2018-10-21T18:20:33.123Z,16.49
2018-10-21T18:23:01.161Z,16.36
2018-10-21T18:25:29.180Z,16.42
2018-10-21T18:27:57.289Z,16.25
2018-10-21T18:30:25.269Z,16.16
2018-10-21T18:32:53.321Z,16.07
2018-10-21T18:35:21.356Z,16.07
2018-10-21T18:37:49.373Z,15.83
2018-10-21T18:40:17.502Z,15.80
2018-10-21T18:42:45.480Z,15.96
2018-10-21T18:45:14.629Z,15.95
2018-10-21T18:47:43.195Z,16.03
2018-10-21T18:50:12.757Z,16.11
2018-10-21T18:52:41.064Z,16.03
2018-10-21T18:55:09.825Z,16.00
2018-10-21T18:57:37.785Z,16.06
2018-10-21T19:00:09.482Z,16.06
2018-10-21T19:02:37.504Z,16.14
2018-10-21T19:05:06.554Z,16.12
2018-10-21T19:07:34.581Z,16.07
2018-10-21T19:12:22.086Z,16.01
2018-10-21T19:14:50.120Z,16.10
2018-10-21T19:17:18.230Z,16.05
2018-10-21T19:19:46.327Z,16.10
2018-10-21T19:22:14.385Z,16.01
2018-10-21T19:24:42.345Z,16.02
2018-10-21T19:27:10.737Z,15.97
2018-10-21T19:29:38.729Z,15.82
2018-10-21T19:32:06.837Z,15.67
2018-10-21T19:34:34.938Z,15.40
2018-10-21T19:37:02.980Z,15.31
2018-10-21T19:39:30.982Z,15.20
2018-10-21T19:41:59.085Z,15.17
2018-10-21T19:44:27.088Z,15.25
2018-10-21T19:46:55.137Z,15.39
2018-10-21T19:49:23.185Z,15.39
2018-10-21T19:51:51.213Z,15.23
2018-10-21T19:54:19.218Z,15.33
2018-10-21T19:56:47.301Z,15.42
2018-10-21T19:59:15.371Z,15.49
2018-10-21T20:01:43.397Z,15.54
2018-10-21T20:04:11.526Z,15.64
2018-10-21T20:06:39.472Z,15.74
2018-10-21T20:09:08.924Z,15.85
2018-10-21T20:11:37.319Z,15.84
2018-10-21T20:14:05.587Z,15.88
2018-10-21T20:16:33.649Z,15.90
2018-10-21T20:19:01.751Z,15.98
2018-10-21T20:21:29.786Z,16.03
2018-10-21T20:23:57.837Z,16.10
2018-10-21T20:26:25.924Z,16.11
2018-10-21T20:28:53.977Z,16.05
2018-10-21T20:31:22.104Z,16.02
2018-10-21T20:33:50.235Z,15.99
2018-10-21T20:36:18.334Z,15.95
2018-10-21T20:38:46.431Z,15.92
2018-10-21T20:41:14.486Z,15.90
2018-10-21T20:43:42.643Z,15.82
2018-10-21T20:46:10.948Z,15.83
2018-10-21T20:48:39.040Z,15.86
2018-10-21T20:51:07.102Z,15.89
2018-10-21T20:53:35.366Z,15.82
2018-10-21T20:56:03.476Z,15.80
2018-10-21T20:58:32.077Z,15.54
2018-10-21T21:01:00.101Z,15.64
2018-10-21T21:03:29.218Z,15.66
2018-10-21T21:05:57.423Z,15.66
2018-10-21T21:08:25.578Z,15.69
2018-10-21T21:10:53.738Z,15.67
2018-10-21T21:13:21.855Z,15.37
2018-10-21T21:15:50.108Z,15.50
2018-10-21T21:18:18.244Z,15.41
2018-10-21T21:20:46.286Z,15.45
2018-10-21T21:23:14.313Z,15.52
2018-10-21T21:25:42.381Z,15.48
2018-10-21T21:28:10.509Z,15.55
2018-10-21T21:30:38.748Z,15.47
2018-10-21T21:33:07.417Z,15.27
2018-10-21T21:35:35.600Z,15.25
2018-10-21T21:38:03.661Z,15.12
2018-10-21T21:40:31.708Z,15.00
2018-10-21T21:42:59.692Z,14.96
2018-10-21T21:45:28.824Z,15.09
2018-10-21T21:47:56.889Z,15.16
2018-10-21T21:50:24.981Z,15.17
2018-10-21T21:52:53.026Z,15.22
2018-10-21T21:55:22.121Z,15.14
2018-10-21T21:57:50.152Z,15.17
2018-10-21T22:00:18.317Z,15.12
2018-10-21T22:02:46.507Z,15.13
2018-10-21T22:05:14.535Z,15.15
2018-10-21T22:07:42.586Z,15.05
2018-10-21T22:10:12.690Z,14.92
2018-10-21T22:12:40.977Z,14.98
2018-10-21T22:15:08.973Z,15.02
2018-10-21T22:17:38.140Z,15.11
2018-10-21T22:20:06.326Z,15.00
2018-10-21T22:22:34.424Z,15.17
2018-10-21T22:25:02.421Z,15.26
2018-10-21T22:27:30.492Z,15.24
2018-10-21T22:29:58.532Z,15.31
2018-10-21T22:32:26.522Z,15.33
2018-10-21T22:34:54.539Z,15.39
2018-10-21T22:37:22.678Z,15.27
2018-10-21T22:39:50.753Z,15.23
2018-10-21T22:42:19.028Z,15.28
2018-10-21T22:44:46.959Z,15.33
2018-10-21T22:47:15.002Z,15.29
2018-10-21T22:49:43.148Z,15.35
2018-10-21T22:52:11.257Z,15.41
2018-10-21T22:54:39.290Z,15.43
2018-10-21T22:57:12.790Z,15.36
2018-10-21T22:59:40.940Z,15.21
2018-10-21T23:02:08.951Z,15.20
2018-10-21T23:04:37.026Z,15.14
2018-10-21T23:07:05.517Z,15.12
2018-10-21T23:09:33.478Z,15.17
2018-10-21T23:12:01.659Z,15.13
2018-10-21T23:14:29.682Z,15.17
2018-10-21T23:16:57.777Z,15.02
2018-10-21T23:19:38.768Z,15.05
2018-10-21T23:22:06.825Z,15.03
2018-10-21T23:24:35.213Z,15.02
2018-10-21T23:27:03.204Z,14.99
2018-10-21T23:29:31.266Z,14.88
2018-10-21T23:31:59.539Z,14.88
2018-10-21T23:34:27.898Z,14.95
2018-10-21T23:36:56.223Z,14.87
2018-10-21T23:39:24.512Z,14.85
2018-10-21T23:41:52.540Z,14.89
2018-10-21T23:44:20.601Z,14.81
2018-10-21T23:46:49.067Z,14.87
2018-10-21T23:49:17.141Z,14.65
2018-10-21T23:51:45.182Z,14.59
2018-10-21T23:54:13.274Z,14.73
2018-10-21T23:56:41.261Z,14.74
2018-10-21T23:59:10.250Z,14.89
